createdAt,value
2023-04-08T00:00:37.838Z,28.33
2023-04-08T00:03:06.672Z,27.60
2023-04-08T00:05:35.876Z,25.73
2023-04-08T00:08:07.183Z,24.40
2023-04-08T00:10:36.598Z,25.07
2023-04-08T00:13:05.540Z,21.83
2023-04-08T00:15:34.456Z,28.67
2023-04-08T00:18:04.774Z,25.13
2023-04-08T00:20:33.547Z,32.00
2023-04-08T00:23:02.271Z,25.57
2023-04-08T00:25:30.969Z,28.47
2023-04-08T00:27:59.734Z,30.23
2023-04-08T00:30:28.683Z,30.00
2023-04-08T00:32:57.733Z,30.57
2023-04-08T00:35:28.064Z,32.10
2023-04-08T00:37:57.118Z,29.03
2023-04-08T00:40:25.797Z,29.43
2023-04-08T00:42:54.582Z,37.70
2023-04-08T00:45:23.558Z,29.50
2023-04-08T00:47:53.153Z,31.00
2023-04-08T00:50:22.004Z,36.30
2023-04-08T00:52:52.237Z,34.30
2023-04-08T00:55:21.024Z,35.97
2023-04-08T00:57:50.123Z,33.40
2023-04-08T01:00:18.996Z,33.53
2023-04-08T01:02:55.852Z,32.97
2023-04-08T01:05:33.891Z,36.37
2023-04-08T01:08:09.552Z,32.70
2023-04-08T01:10:41.618Z,35.07
2023-04-08T01:13:13.308Z,33.07
2023-04-08T01:15:45.580Z,34.87
2023-04-08T01:18:17.407Z,37.83
2023-04-08T01:20:46.792Z,35.40
2023-04-08T01:23:24.555Z,38.00
2023-04-08T01:25:56.141Z,33.53
2023-04-08T01:28:27.910Z,34.87
2023-04-08T01:30:58.664Z,36.03
2023-04-08T01:33:30.793Z,35.50
2023-04-08T01:36:01.533Z,30.93
2023-04-08T01:38:34.933Z,37.40
2023-04-08T01:41:07.203Z,40.07
2023-04-08T01:43:37.510Z,37.73
2023-04-08T01:46:07.804Z,36.37
2023-04-08T01:48:37.674Z,39.40
2023-04-08T01:51:07.366Z,39.23
2023-04-08T01:53:38.099Z,37.07
2023-04-08T01:56:13.230Z,41.37
2023-04-08T01:58:47.977Z,42.30
2023-04-08T02:01:20.293Z,40.13
2023-04-08T02:03:55.665Z,42.30
2023-04-08T02:06:27.771Z,49.00
2023-04-08T02:08:57.212Z,44.67
2023-04-08T02:11:28.337Z,43.90
2023-04-08T02:13:57.571Z,45.87
2023-04-08T02:16:35.116Z,42.57
2023-04-08T02:19:13.274Z,46.33
2023-04-08T02:21:50.356Z,46.80
2023-04-08T02:24:20.400Z,46.03
2023-04-08T02:26:52.339Z,50.43
2023-04-08T02:29:21.871Z,48.70
2023-04-08T02:31:54.763Z,47.37
2023-04-08T02:34:25.442Z,49.47
2023-04-08T02:36:54.507Z,50.07
2023-04-08T02:39:23.239Z,47.53
2023-04-08T02:41:53.579Z,47.60
2023-04-08T02:44:24.072Z,46.80
2023-04-08T02:46:52.747Z,49.93
2023-04-08T02:49:21.566Z,52.27
2023-04-08T02:51:50.336Z,52.10
2023-04-08T02:54:19.157Z,44.37
2023-04-08T02:56:47.986Z,45.53
2023-04-08T02:59:18.250Z,49.87
2023-04-08T03:01:47.217Z,46.03
2023-04-08T03:04:15.950Z,43.57
2023-04-08T03:06:44.691Z,40.47
2023-04-08T03:09:13.478Z,41.67
2023-04-08T03:11:42.236Z,39.70
2023-04-08T03:14:11.536Z,42.80
2023-04-08T03:16:41.778Z,42.73
2023-04-08T03:19:10.919Z,40.60
2023-04-08T03:21:39.667Z,34.67
2023-04-08T03:24:08.450Z,40.10
2023-04-08T03:26:37.201Z,35.97
2023-04-08T03:29:06.959Z,38.07
2023-04-08T03:31:36.168Z,36.50
2023-04-08T03:34:06.576Z,35.23
2023-04-08T03:36:35.421Z,34.43
2023-04-08T03:39:04.321Z,32.70
2023-04-08T03:41:33.167Z,32.37
2023-04-08T03:44:01.915Z,33.50
2023-04-08T03:46:30.842Z,34.30
2023-04-08T03:48:59.559Z,32.97
2023-04-08T03:51:29.950Z,33.47
2023-04-08T03:53:58.662Z,37.90
2023-04-08T03:56:28.028Z,39.70
2023-04-08T03:58:57.202Z,31.90
2023-04-08T04:01:25.997Z,33.63
2023-04-08T04:03:55.030Z,32.47
2023-04-08T04:06:23.882Z,28.47
2023-04-08T04:08:54.813Z,28.20
2023-04-08T04:11:23.819Z,28.67
2023-04-08T04:13:52.706Z,29.23
2023-04-08T04:16:21.439Z,25.37
2023-04-08T04:18:50.728Z,26.63
2023-04-08T04:21:19.800Z,29.87
2023-04-08T04:23:48.569Z,29.97
2023-04-08T04:26:19.197Z,29.87
2023-04-08T04:28:48.360Z,31.57
2023-04-08T04:31:21.586Z,30.57
2023-04-08T04:33:50.747Z,29.97
2023-04-08T04:36:19.970Z,32.03
2023-04-08T04:38:50.209Z,32.77
2023-04-08T04:41:21.870Z,33.30
2023-04-08T04:43:50.698Z,31.77
2023-04-08T04:46:19.401Z,33.97
2023-04-08T04:48:48.282Z,33.67
2023-04-08T04:51:17.181Z,36.43
2023-04-08T04:53:46.172Z,39.47
2023-04-08T04:56:15.019Z,36.43
2023-04-08T04:58:45.361Z,39.57
2023-04-08T05:01:14.516Z,41.03
2023-04-08T05:03:43.275Z,43.20
2023-04-08T05:06:12.212Z,42.37
2023-04-08T05:08:41.224Z,41.93
2023-04-08T05:11:11.186Z,44.37
2023-04-08T05:13:39.791Z,44.50
2023-04-08T05:16:10.629Z,42.00
2023-04-08T05:18:39.415Z,41.57
2023-04-08T05:21:08.050Z,43.43
2023-04-08T05:23:36.925Z,46.30
2023-04-08T05:26:08.924Z,41.17
2023-04-08T05:28:37.680Z,41.17
2023-04-08T05:31:06.581Z,38.67
2023-04-08T05:33:36.880Z,38.63
2023-04-08T05:36:05.879Z,39.50
2023-04-08T05:38:37.651Z,42.10
2023-04-08T05:41:06.585Z,39.53
2023-04-08T05:43:35.392Z,38.77
2023-04-08T05:46:17.755Z,40.10
2023-04-08T05:48:48.225Z,37.50
2023-04-08T05:51:18.510Z,36.47
2023-04-08T05:53:47.800Z,35.00
2023-04-08T05:56:16.881Z,38.87
2023-04-08T05:58:45.770Z,38.00
2023-04-08T06:01:14.628Z,38.00
2023-04-08T06:03:43.624Z,33.37
2023-04-08T06:06:14.006Z,32.37
2023-04-08T06:08:42.807Z,33.80
2023-04-08T06:11:11.899Z,35.10
2023-04-08T06:13:40.661Z,35.50
2023-04-08T06:16:12.713Z,32.93
2023-04-08T06:18:41.578Z,33.73
2023-04-08T06:21:11.509Z,33.07
2023-04-08T06:23:41.670Z,32.83
2023-04-08T06:26:10.536Z,28.73
2023-04-08T06:28:39.278Z,30.60
2023-04-08T06:31:08.157Z,31.90
2023-04-08T06:33:36.895Z,28.37
2023-04-08T06:36:09.148Z,27.97
2023-04-08T06:38:37.954Z,29.70
2023-04-08T06:41:08.697Z,30.30
2023-04-08T06:43:37.971Z,28.50
2023-04-08T06:46:07.395Z,28.50
2023-04-08T06:48:37.841Z,26.83
2023-04-08T06:51:07.913Z,27.33
2023-04-08T06:53:36.614Z,26.83
2023-04-08T06:56:05.596Z,26.10
2023-04-08T06:58:35.788Z,27.00
2023-04-08T07:01:05.059Z,26.13
2023-04-08T07:03:33.872Z,26.27
2023-04-08T07:06:02.688Z,26.50
2023-04-08T07:08:31.408Z,30.17
2023-04-08T07:11:00.061Z,27.73
2023-04-08T07:13:29.506Z,27.17
2023-04-08T07:15:59.720Z,24.73
2023-04-08T07:18:28.570Z,28.80
2023-04-08T07:20:57.986Z,28.43
2023-04-08T07:23:26.754Z,25.20
2023-04-08T07:25:55.475Z,26.77
2023-04-08T07:28:24.118Z,22.90
2023-04-08T07:30:52.897Z,30.37
2023-04-08T07:33:23.766Z,31.27
2023-04-08T07:35:52.788Z,24.70
2023-04-08T07:38:21.558Z,26.43
2023-04-08T07:40:50.585Z,26.50
2023-04-08T07:43:19.193Z,29.53
2023-04-08T07:45:47.801Z,22.23
2023-04-08T07:48:16.552Z,25.20
2023-04-08T07:51:08.142Z,23.60
2023-04-08T07:53:36.275Z,26.40
2023-04-08T07:56:05.260Z,22.60
2023-04-08T07:58:34.288Z,22.73
2023-04-08T08:01:03.712Z,24.53
2023-04-08T08:03:34.000Z,25.53
2023-04-08T08:06:04.378Z,32.10
2023-04-08T08:08:33.612Z,23.47
2023-04-08T08:11:02.296Z,27.23
2023-04-08T08:13:31.141Z,20.47
2023-04-08T08:15:59.927Z,19.20
2023-04-08T08:18:28.792Z,21.37
2023-04-08T08:20:57.460Z,20.77
2023-04-08T08:23:28.114Z,21.53
2023-04-08T08:26:01.914Z,22.07
2023-04-08T08:28:30.861Z,21.27
2023-04-08T08:30:59.837Z,21.03
2023-04-08T08:33:28.465Z,21.37
2023-04-08T08:35:58.146Z,21.33
2023-04-08T08:38:28.623Z,20.20
2023-04-08T08:40:57.898Z,21.83
2023-04-08T08:43:27.283Z,21.27
2023-04-08T08:45:56.050Z,23.33
2023-04-08T08:48:24.668Z,20.30
2023-04-08T08:50:53.404Z,20.03
2023-04-08T08:53:23.267Z,21.77
2023-04-08T08:56:16.380Z,20.57
2023-04-08T08:58:42.703Z,21.33
2023-04-08T09:01:33.982Z,21.63
2023-04-08T09:04:16.734Z,22.23
2023-04-08T09:06:47.026Z,22.03
2023-04-08T09:09:16.049Z,23.87
2023-04-08T09:11:47.230Z,21.53
2023-04-08T09:14:20.772Z,24.07
2023-04-08T09:16:49.709Z,22.07
2023-04-08T09:19:18.843Z,22.37
2023-04-08T09:21:47.711Z,24.77
2023-04-08T09:24:29.954Z,24.07
2023-04-08T09:27:00.911Z,23.53
2023-04-08T09:29:33.142Z,22.17
2023-04-08T09:32:03.731Z,21.20
2023-04-08T09:34:34.473Z,22.37
2023-04-08T09:37:03.477Z,19.43
2023-04-08T09:39:32.631Z,21.30
2023-04-08T09:42:11.234Z,19.40
2023-04-08T09:44:41.457Z,22.40
2023-04-08T09:47:18.803Z,18.83
2023-04-08T09:49:51.171Z,18.10
2023-04-08T09:52:26.271Z,18.50
2023-04-08T09:55:00.864Z,19.53
2023-04-08T09:57:41.680Z,19.47
2023-04-08T10:00:14.124Z,21.67
2023-04-08T10:02:50.676Z,19.87
2023-04-08T10:05:21.201Z,18.70
2023-04-08T10:07:51.411Z,18.67
2023-04-08T10:10:21.042Z,19.20
2023-04-08T10:12:52.463Z,18.90
2023-04-08T10:15:26.091Z,20.80
2023-04-08T10:17:55.661Z,19.00
2023-04-08T10:20:49.351Z,16.60
2023-04-08T10:23:21.200Z,21.43
2023-04-08T10:25:50.644Z,19.47
2023-04-08T10:28:27.344Z,19.37
2023-04-08T10:30:57.620Z,19.60
2023-04-08T10:33:34.608Z,17.97
2023-04-08T10:36:12.065Z,20.33
2023-04-08T10:38:42.475Z,19.60
2023-04-08T10:41:14.224Z,18.43
2023-04-08T10:43:48.355Z,22.43
2023-04-08T10:46:17.395Z,16.40
2023-04-08T10:48:46.076Z,15.73
2023-04-08T10:51:15.024Z,17.33
2023-04-08T10:53:44.522Z,15.90
2023-04-08T10:56:17.754Z,16.57
2023-04-08T10:58:52.146Z,17.93
2023-04-08T11:01:21.398Z,18.53
2023-04-08T11:03:50.658Z,16.13
2023-04-08T11:06:19.851Z,16.53
2023-04-08T11:08:48.588Z,15.90
2023-04-08T11:11:17.428Z,17.13
2023-04-08T11:13:53.314Z,16.10
2023-04-08T11:16:24.227Z,15.27
2023-04-08T11:18:53.151Z,17.23
2023-04-08T11:21:22.669Z,15.17
2023-04-08T11:23:53.330Z,19.07
2023-04-08T11:26:22.936Z,18.80
2023-04-08T11:28:52.391Z,16.33
2023-04-08T11:31:24.733Z,17.17
2023-04-08T11:33:56.775Z,17.33
2023-04-08T11:36:26.028Z,17.97
2023-04-08T11:38:56.546Z,18.23
2023-04-08T11:41:26.665Z,17.13
2023-04-08T11:43:57.231Z,19.73
2023-04-08T11:46:27.500Z,17.77
2023-04-08T11:49:01.301Z,18.83
2023-04-08T11:51:30.172Z,18.80
2023-04-08T11:53:59.022Z,19.30
2023-04-08T11:56:29.077Z,16.57
2023-04-08T11:58:57.857Z,14.63
2023-04-08T12:01:28.358Z,17.27
2023-04-08T12:04:01.702Z,15.77
2023-04-08T12:06:31.829Z,18.93
2023-04-08T12:09:00.554Z,15.50
2023-04-08T12:11:29.272Z,15.60
2023-04-08T12:13:58.026Z,14.33
2023-04-08T12:16:28.282Z,14.43
2023-04-08T12:18:57.096Z,17.30
2023-04-08T12:21:25.840Z,16.93
2023-04-08T12:23:54.520Z,13.97
2023-04-08T12:26:23.372Z,14.40
2023-04-08T12:28:52.186Z,14.70
2023-04-08T12:31:21.675Z,15.80
2023-04-08T12:33:52.093Z,15.23
2023-04-08T12:36:20.977Z,14.90
2023-04-08T12:38:49.933Z,15.67
2023-04-08T12:41:19.000Z,17.30
2023-04-08T12:43:47.766Z,13.20
2023-04-08T12:46:16.588Z,14.53
2023-04-08T12:48:47.603Z,17.47
2023-04-08T12:51:18.285Z,14.10
2023-04-08T12:53:47.578Z,15.30
2023-04-08T12:56:16.406Z,14.90
2023-04-08T12:58:45.307Z,16.07
2023-04-08T13:01:14.150Z,14.57
2023-04-08T13:03:45.020Z,15.10
2023-04-08T13:06:17.227Z,13.77
2023-04-08T13:08:46.003Z,14.43
2023-04-08T13:11:15.004Z,14.00
2023-04-08T13:13:44.110Z,16.77
2023-04-08T13:16:14.203Z,17.17
2023-04-08T13:18:43.435Z,15.90
2023-04-08T13:21:12.219Z,15.87
2023-04-08T13:23:42.396Z,16.47
2023-04-08T13:26:11.293Z,18.03
2023-04-08T13:28:53.642Z,14.30
2023-04-08T13:31:25.999Z,19.73
2023-04-08T13:33:57.540Z,16.80
2023-04-08T13:36:28.698Z,13.47
2023-04-08T13:38:59.862Z,15.10
2023-04-08T13:41:28.989Z,14.13
2023-04-08T13:43:58.513Z,12.80
2023-04-08T13:46:27.322Z,12.27
2023-04-08T13:48:56.164Z,13.03
2023-04-08T13:51:24.942Z,14.43
2023-04-08T13:53:53.582Z,13.27
2023-04-08T13:56:23.764Z,14.00
2023-04-08T13:58:57.162Z,13.37
2023-04-08T14:01:26.547Z,13.30
2023-04-08T14:03:55.647Z,14.57
2023-04-08T14:06:24.374Z,13.87
2023-04-08T14:08:53.298Z,13.03
2023-04-08T14:11:23.577Z,12.93
2023-04-08T14:13:52.374Z,13.90
2023-04-08T14:16:21.479Z,16.63
2023-04-08T14:18:51.096Z,12.33
2023-04-08T14:21:20.336Z,13.93
2023-04-08T14:23:49.354Z,14.87
2023-04-08T14:26:17.987Z,14.27
2023-04-08T14:28:49.036Z,14.37
2023-04-08T14:31:17.960Z,12.70
2023-04-08T14:33:46.626Z,14.17
2023-04-08T14:36:15.491Z,13.67
2023-04-08T14:38:44.253Z,14.23
2023-04-08T14:41:13.226Z,13.63
2023-04-08T14:43:41.983Z,12.33
2023-04-08T14:46:12.098Z,13.60
2023-04-08T14:48:40.812Z,13.37
2023-04-08T14:51:09.569Z,13.60
2023-04-08T14:53:38.398Z,14.20
2023-04-08T14:56:10.149Z,12.37
2023-04-08T14:58:39.387Z,11.53
2023-04-08T15:01:08.084Z,11.40
2023-04-08T15:03:38.787Z,13.67
2023-04-08T15:06:08.188Z,16.53
2023-04-08T15:08:36.910Z,16.07
2023-04-08T15:11:05.875Z,12.30
2023-04-08T15:13:35.983Z,13.63
2023-04-08T15:16:04.940Z,12.17
2023-04-08T15:18:33.698Z,12.17
2023-04-08T15:21:03.927Z,12.73
2023-04-08T15:23:32.686Z,13.40
2023-04-08T15:26:01.590Z,11.67
2023-04-08T15:28:31.140Z,16.03
2023-04-08T15:30:59.902Z,13.67
2023-04-08T15:33:28.756Z,15.57
2023-04-08T15:35:59.830Z,12.70
2023-04-08T15:38:30.452Z,12.00
2023-04-08T15:40:59.306Z,13.13
2023-04-08T15:43:28.267Z,14.00
2023-04-08T15:45:57.225Z,14.33
2023-04-08T15:48:26.151Z,13.53
2023-04-08T15:50:55.035Z,13.13
2023-04-08T15:53:23.866Z,13.53
2023-04-08T15:55:54.048Z,12.33
2023-04-08T15:58:22.661Z,12.07
2023-04-08T16:00:52.206Z,11.80
2023-04-08T16:03:21.235Z,10.60
2023-04-08T16:05:50.115Z,10.47
2023-04-08T16:08:19.010Z,12.03
2023-04-08T16:10:47.852Z,14.10
2023-04-08T16:13:17.932Z,11.50
2023-04-08T16:15:46.672Z,11.93
2023-04-08T16:18:15.983Z,12.63
2023-04-08T16:20:44.829Z,13.13
2023-04-08T16:23:15.868Z,12.93
2023-04-08T16:25:44.589Z,12.87
2023-04-08T16:28:13.427Z,14.17
2023-04-08T16:30:44.146Z,11.27
2023-04-08T16:33:12.791Z,12.40
2023-04-08T16:35:41.468Z,12.10
2023-04-08T16:38:10.182Z,12.47
2023-04-08T16:40:39.233Z,12.30
2023-04-08T16:43:07.939Z,14.37
2023-04-08T16:45:36.695Z,12.57
2023-04-08T16:48:07.460Z,12.43
2023-04-08T16:50:38.522Z,12.83
2023-04-08T16:53:07.420Z,13.97
2023-04-08T16:55:36.910Z,15.60
2023-04-08T16:58:05.758Z,25.60
2023-04-08T17:00:34.540Z,17.17
2023-04-08T17:03:03.461Z,20.23
2023-04-08T17:05:33.742Z,13.13
2023-04-08T17:08:02.797Z,14.23
2023-04-08T17:10:31.485Z,11.83
2023-04-08T17:13:00.483Z,13.63
2023-04-08T17:15:29.286Z,12.70
2023-04-08T17:17:58.002Z,13.83
2023-04-08T17:20:27.768Z,13.37
2023-04-08T17:22:57.861Z,14.03
2023-04-08T17:25:26.566Z,14.30
2023-04-08T17:27:55.370Z,13.70
2023-04-08T17:30:24.235Z,16.13
2023-04-08T17:32:53.068Z,15.33
2023-04-08T17:35:21.695Z,16.43
2023-04-08T17:37:50.672Z,17.87
2023-04-08T17:40:21.927Z,16.67
2023-04-08T17:42:50.650Z,15.97
2023-04-08T17:45:19.434Z,18.00
2023-04-08T17:47:48.111Z,20.40
2023-04-08T17:50:16.995Z,18.53
2023-04-08T17:52:47.769Z,18.67
2023-04-08T17:55:16.590Z,18.87
2023-04-08T17:57:47.071Z,19.93
2023-04-08T18:00:15.993Z,18.40
2023-04-08T18:02:45.075Z,20.70
2023-04-08T18:05:14.262Z,21.03
2023-04-08T18:07:43.145Z,20.43
2023-04-08T18:10:12.107Z,20.37
2023-04-08T18:12:40.913Z,22.87
2023-04-08T18:15:12.219Z,24.80
2023-04-08T18:17:41.162Z,22.23
2023-04-08T18:20:10.707Z,27.17
2023-04-08T18:22:39.477Z,24.03
2023-04-08T18:25:08.667Z,27.87
2023-04-08T18:27:37.348Z,28.13
2023-04-08T18:30:07.140Z,26.83
2023-04-08T18:32:37.286Z,30.57
2023-04-08T18:35:06.788Z,36.70
2023-04-08T18:37:35.657Z,32.83
2023-04-08T18:40:04.784Z,35.00
2023-04-08T18:42:33.571Z,35.93
2023-04-08T18:45:02.171Z,34.27
2023-04-08T18:47:30.837Z,32.70
2023-04-08T18:50:01.599Z,36.20
2023-04-08T18:52:32.105Z,40.83
2023-04-08T18:55:00.909Z,39.30
2023-04-08T18:57:29.688Z,40.30
2023-04-08T18:59:58.430Z,33.40
2023-04-08T19:02:27.155Z,38.20
2023-04-08T19:04:56.385Z,37.40
2023-04-08T19:07:26.317Z,40.00
2023-04-08T19:09:58.299Z,50.60
2023-04-08T19:12:27.301Z,55.33
2023-04-08T19:14:56.071Z,57.65
2023-04-08T19:17:24.937Z,54.03
2023-04-08T19:19:53.636Z,52.37
2023-04-08T19:22:22.392Z,55.53
2023-04-08T19:24:54.473Z,50.50
2023-04-08T19:27:23.894Z,52.33
2023-04-08T19:29:52.630Z,46.60
2023-04-08T19:32:21.718Z,42.80
2023-04-08T19:34:50.497Z,44.87
2023-04-08T19:37:19.304Z,42.27
2023-04-08T19:39:48.024Z,36.70
2023-04-08T19:42:19.222Z,40.53
2023-04-08T19:44:48.809Z,39.00
2023-04-08T19:47:18.190Z,37.37
2023-04-08T19:49:46.975Z,38.67
2023-04-08T19:52:15.740Z,37.80
2023-04-08T19:54:44.499Z,36.20
2023-04-08T19:57:13.231Z,33.00
2023-04-08T19:59:43.334Z,38.60
2023-04-08T20:02:12.311Z,37.17
2023-04-08T20:04:41.248Z,33.63
2023-04-08T20:07:09.988Z,35.27
2023-04-08T20:09:38.769Z,38.30
2023-04-08T20:12:07.511Z,30.27
2023-04-08T20:14:40.475Z,29.80
2023-04-08T20:17:10.597Z,30.20
2023-04-08T20:19:40.312Z,30.80
2023-04-08T20:22:09.126Z,35.57
2023-04-08T20:24:37.867Z,39.37
2023-04-08T20:27:06.581Z,38.53
2023-04-08T20:29:35.558Z,38.53
2023-04-08T20:32:04.240Z,44.40
2023-04-08T20:34:34.309Z,39.10
2023-04-08T20:37:03.190Z,40.97
2023-04-08T20:39:31.997Z,38.03
2023-04-08T20:42:00.699Z,42.63
2023-04-08T20:44:29.652Z,46.50
2023-04-08T20:46:59.354Z,40.50
2023-04-08T20:49:28.161Z,43.10
2023-04-08T20:51:58.779Z,42.97
2023-04-08T20:54:29.259Z,42.37
2023-04-08T20:56:57.990Z,36.80
2023-04-08T20:59:27.094Z,42.20
2023-04-08T21:01:55.867Z,40.83
2023-04-08T21:04:24.792Z,37.07
2023-04-08T21:06:53.683Z,37.20
2023-04-08T21:09:23.771Z,42.73
2023-04-08T21:11:52.544Z,42.67
2023-04-08T21:14:21.238Z,41.43
2023-04-08T21:16:50.006Z,38.47
2023-04-08T21:19:18.591Z,39.07
2023-04-08T21:21:47.429Z,38.03
2023-04-08T21:24:16.128Z,43.97
2023-04-08T21:26:46.725Z,40.80
2023-04-08T21:29:15.498Z,40.27
2023-04-08T21:31:44.308Z,39.27
2023-04-08T21:34:13.362Z,38.60
2023-04-08T21:36:42.003Z,39.13
2023-04-08T21:39:10.684Z,38.37
2023-04-08T21:41:39.372Z,36.30
2023-04-08T21:44:10.329Z,35.27
2023-04-08T21:46:39.071Z,43.23
2023-04-08T21:49:07.878Z,38.13
2023-04-08T21:51:38.588Z,33.13
2023-04-08T21:54:07.293Z,40.13
2023-04-08T21:56:35.919Z,35.63
2023-04-08T21:59:04.931Z,38.47
2023-04-08T22:01:35.092Z,37.27
2023-04-08T22:04:04.076Z,38.30
2023-04-08T22:06:33.099Z,37.57
2023-04-08T22:09:02.285Z,41.23
2023-04-08T22:11:31.030Z,40.10
2023-04-08T22:13:59.725Z,44.33
2023-04-08T22:16:28.547Z,40.50
2023-04-08T22:18:58.699Z,34.17
2023-04-08T22:21:27.636Z,39.70
2023-04-08T22:23:56.297Z,43.80
2023-04-08T22:26:24.990Z,41.73
2023-04-08T22:28:53.882Z,43.47
2023-04-08T22:31:23.033Z,39.20
2023-04-08T22:33:51.819Z,37.10
2023-04-08T22:36:21.808Z,41.43
2023-04-08T22:38:50.840Z,39.00
2023-04-08T22:41:20.020Z,40.93
2023-04-08T22:43:48.782Z,36.60
2023-04-08T22:46:18.487Z,38.27
2023-04-08T22:48:47.794Z,36.83
2023-04-08T22:51:16.441Z,40.10
2023-04-08T22:53:46.719Z,39.27
2023-04-08T22:56:15.593Z,39.20
2023-04-08T22:58:44.351Z,43.17
2023-04-08T23:01:14.749Z,44.33
2023-04-08T23:03:43.583Z,44.43
2023-04-08T23:06:12.272Z,44.80
2023-04-08T23:08:41.382Z,45.63
2023-04-08T23:11:11.710Z,43.90
2023-04-08T23:13:40.768Z,43.50
2023-04-08T23:16:10.404Z,38.63
2023-04-08T23:18:39.352Z,39.43
2023-04-08T23:21:08.059Z,43.33
2023-04-08T23:23:36.837Z,41.37
2023-04-08T23:26:05.738Z,37.93
2023-04-08T23:28:36.243Z,39.83
2023-04-08T23:31:06.133Z,39.97
2023-04-08T23:33:34.914Z,43.67
2023-04-08T23:36:08.509Z,42.83
2023-04-08T23:38:38.056Z,41.30
2023-04-08T23:41:07.531Z,37.43
2023-04-08T23:43:37.772Z,40.10
2023-04-08T23:46:06.539Z,40.13
2023-04-08T23:48:35.391Z,37.37
2023-04-08T23:51:04.324Z,40.40
2023-04-08T23:53:32.988Z,41.77
2023-04-08T23:56:06.494Z,39.60
2023-04-08T23:58:36.977Z,40.77
